• Join FlightAware (Why Join?)
  • Login
  • US Flag 
Rudolph Flight #1: Arrived! 
09:35AM EST


 

Airport Tracker/Info


-or-


 

Live Flight TrackerFlight Track Log ✈ SKW6280 ✈ 08-May-2013 ✈ KSAN - KLAX

Flight Track Log - Related Links

Times and Time Zones

All times are in EDT time to prevent confusion due to time zone crossing. See the SKW6280 flight status page for this flight to view local times or setup timezone preferences in your user account.

Time Position Orientation Groundspeed Altitude Reporting Facility
EDT Latitude Longitude Course Direction KTS MPH feet Rate Location/Type
12:46PM 32.7500 -117.2333 320° Northwest 155 178 1,800  Level Southern California TRACON
12:47PM 32.7667 -117.2833 292° West 181 208 3,500 1,440 Climbing Southern California TRACON
12:48PM 32.7936 -117.3275 306° West 180 207 4,800 1,320 Climbing Los Angeles Center
12:49PM 32.8303 -117.3706 315° West 184 212 6,500 1,380 Climbing Los Angeles Center
12:50PM 32.8822 -117.4358 313° West 193 222 8,000 720 Climbing Los Angeles Center
12:51PM 33.0370 -117.4867 320° Northwest  Level FlightAware Approximate
12:51PM 32.9261 -117.4936 312° West 226 260 8,000  Level Los Angeles Center
12:52PM 32.9683 -117.5494 312° West 229 264 8,000  Level Los Angeles Center
12:53PM 33.0097 -117.6064 311° West 228 262 8,000  Level Los Angeles Center
12:54PM 33.0522 -117.6619 312° West 227 261 8,000  Level Los Angeles Center
12:55PM 33.1158 -117.7106 327° Northwest 235 270 8,000  Level Los Angeles Center
12:56PM 33.1728 -117.7411 336° Northwest 228 262 8,000  Level Los Angeles Center
12:57PM 33.2311 -117.7717 336° Northwest 229 264 8,000  Level Los Angeles Center
12:58PM 33.2894 -117.8008 337° Northwest 228 262 8,000  Level Los Angeles Center
12:59PM 33.3486 -117.8317 336° Northwest 231 266 8,000  Level Los Angeles Center
01:00PM 33.3833 -117.8500 336° Northwest 231 266 8,000  Level Southern California TRACON
01:01PM 33.4500 -117.8833 337° Northwest 226 260 8,000  Level Southern California TRACON
01:01PM 33.4764 -117.8964 338° Northwest 226 260 8,000  Level Los Angeles Center
01:03PM 33.5344 -117.9250 338° Northwest 226 260 8,000 -180 Level Los Angeles Center
01:04PM 33.5928 -117.9558 336° Northwest 229 264 7,700 -600 Descending Los Angeles Center
01:04PM 33.6333 -117.9667 347° North 249 287 7,200 -540 Descending Southern California TRACON
01:05PM 33.6833 -118.0000 331° Northwest 240 276 7,000 -120 Descending Southern California TRACON
01:06PM 33.7500 -118.0333 337° Northwest 232 267 7,000  Level Southern California TRACON
01:07PM 33.8000 -118.0667 331° Northwest 229 264 7,000 -480 Level Southern California TRACON
01:08PM 33.8667 -118.0833 348° North 235 270 6,100 -1,560 Descending Southern California TRACON
01:10PM 33.9525 -118.1536 326° Northwest 237 273 2,600 -1,200 Descending Los Angeles Center
01:11PM 33.9528 -118.2336 270° West 206 237 2,700 60 Climbing Los Angeles Center